createdAt,value
2019-04-06T00:03:19.923Z,8.07
2019-04-06T00:06:09.748Z,8.63
2019-04-06T00:08:59.571Z,8.07
2019-04-06T00:11:49.517Z,8.20
2019-04-06T00:14:39.681Z,8.33
2019-04-06T00:17:29.513Z,8.90
2019-04-06T00:20:19.357Z,9.03
2019-04-06T00:23:09.290Z,9.37
2019-04-06T00:26:18.143Z,9.20
2019-04-06T00:29:07.968Z,8.80
2019-04-06T00:32:16.656Z,8.60
2019-04-06T00:35:06.610Z,8.90
2019-04-06T00:37:56.338Z,8.50
2019-04-06T00:40:38.835Z,8.57
2019-04-06T00:43:28.555Z,8.07
2019-04-06T00:46:10.820Z,7.87
2019-04-06T00:49:00.531Z,7.60
2019-04-06T00:51:43.012Z,7.67
2019-04-06T00:57:32.159Z,8.30
2019-04-06T01:00:15.290Z,8.63
2019-04-06T01:03:24.252Z,8.90
2019-04-06T01:06:14.072Z,8.03
2019-04-06T01:12:10.366Z,8.73
2019-04-06T01:14:52.977Z,8.57
2019-04-06T01:17:42.704Z,9.50
2019-04-06T01:20:25.718Z,8.90
2019-04-06T01:23:15.432Z,8.97
2019-04-06T01:26:07.331Z,9.60
2019-04-06T01:28:54.182Z,9.63
2019-04-06T01:31:36.438Z,8.93
2019-04-06T01:34:26.256Z,9.40
2019-04-06T01:37:15.972Z,8.87
2019-04-06T01:39:58.499Z,8.93
2019-04-06T01:43:07.422Z,9.07
2019-04-06T01:45:57.194Z,8.90
2019-04-06T01:48:46.980Z,8.27
2019-04-06T01:51:36.704Z,8.70
2019-04-06T01:54:26.424Z,8.80
2019-04-06T01:57:08.878Z,8.37
2019-04-06T01:59:58.930Z,8.10
2019-04-06T02:02:43.793Z,8.27
2019-04-06T02:05:33.582Z,8.27
2019-04-06T02:08:15.810Z,9.10
2019-04-06T02:11:05.644Z,9.17
2019-04-06T02:13:48.562Z,8.47
2019-04-06T02:16:38.313Z,9.00
2019-04-06T02:19:20.375Z,8.70
2019-04-06T02:22:03.239Z,9.00
2019-04-06T02:24:52.996Z,9.87
2019-04-06T02:27:35.948Z,9.97
2019-04-06T02:33:47.515Z,9.53
2019-04-06T02:36:56.082Z,9.83
2019-04-06T02:39:45.922Z,8.63
2019-04-06T02:45:36.728Z,8.90
2019-04-06T02:48:23.380Z,9.20
2019-04-06T02:51:06.311Z,8.77
2019-04-06T02:53:56.308Z,9.23
2019-04-06T02:56:46.746Z,9.07
2019-04-06T02:59:32.482Z,9.43
2019-04-06T03:02:22.262Z,9.70
2019-04-06T03:07:55.727Z,9.10
2019-04-06T03:10:45.492Z,9.53
2019-04-06T03:13:29.935Z,9.37
2019-04-06T03:16:19.719Z,10.57
2019-04-06T03:19:09.445Z,9.47
2019-04-06T03:21:52.998Z,9.90
2019-04-06T03:24:42.875Z,10.17
2019-04-06T03:27:32.624Z,9.13
2019-04-06T03:30:14.692Z,8.60
2019-04-06T03:33:04.667Z,8.70
2019-04-06T03:35:54.499Z,8.47
2019-04-06T03:38:44.350Z,8.87
2019-04-06T03:41:34.193Z,9.80
2019-04-06T03:44:24.183Z,9.23
2019-04-06T03:47:14.186Z,9.80
2019-04-06T03:49:58.469Z,10.20
2019-04-06T03:53:00.964Z,9.80
2019-04-06T03:55:31.697Z,9.50
2019-04-06T03:58:21.427Z,10.27
2019-04-06T04:01:04.494Z,9.33
2019-04-06T04:03:54.473Z,10.03
2019-04-06T04:06:38.125Z,9.63
2019-04-06T04:09:27.831Z,8.87
2019-04-06T04:12:10.601Z,9.27
2019-04-06T04:15:00.422Z,9.60
2019-04-06T04:17:50.433Z,9.87
2019-04-06T04:20:32.875Z,9.97
2019-04-06T04:23:22.761Z,9.53
2019-04-06T04:26:12.594Z,10.30
2019-04-06T04:29:02.484Z,9.83
2019-04-06T04:31:52.554Z,10.70
2019-04-06T04:34:36.668Z,9.73
2019-04-06T04:37:26.562Z,10.53
2019-04-06T04:40:16.320Z,10.10
2019-04-06T04:43:06.087Z,11.33
2019-04-06T04:45:55.835Z,10.33
2019-04-06T04:48:38.909Z,10.63
2019-04-06T04:51:28.842Z,11.10
2019-04-06T04:54:18.674Z,10.30
2019-04-06T04:57:08.458Z,10.30
2019-04-06T04:59:58.322Z,9.83
2019-04-06T05:02:48.153Z,10.83
2019-04-06T05:05:38.255Z,10.87
2019-04-06T05:08:28.272Z,11.70
2019-04-06T05:11:18.093Z,12.00
2019-04-06T05:19:54.555Z,12.77
2019-04-06T05:25:39.781Z,10.93
2019-04-06T05:28:29.514Z,12.20
2019-04-06T05:31:16.244Z,12.67
2019-04-06T05:34:05.990Z,13.90
2019-04-06T05:36:49.559Z,14.67
2019-04-06T05:39:39.342Z,15.40
2019-04-06T05:42:25.970Z,17.60
2019-04-06T05:45:08.815Z,27.83
2019-04-06T05:47:58.622Z,31.37
2019-04-06T05:50:48.436Z,27.80
2019-04-06T05:53:38.242Z,33.27
2019-04-06T05:56:28.075Z,39.37
2019-04-06T05:59:40.322Z,27.50
2019-04-06T06:02:20.729Z,22.17
2019-04-06T06:05:11.169Z,24.37
2019-04-06T06:07:56.980Z,18.43
2019-04-06T06:10:46.797Z,17.80
2019-04-06T06:13:36.545Z,13.30
2019-04-06T06:16:19.196Z,12.50
2019-04-06T06:19:09.023Z,11.00
2019-04-06T06:21:58.832Z,11.10
2019-04-06T06:24:48.657Z,10.50
2019-04-06T06:27:38.497Z,8.50
2019-04-06T06:30:28.298Z,8.13
2019-04-06T06:33:18.144Z,7.27
2019-04-06T06:36:07.917Z,7.40
2019-04-06T06:38:39.301Z,7.83
2019-04-06T06:41:22.671Z,7.30
2019-04-06T06:44:12.397Z,7.50
2019-04-06T06:46:54.515Z,7.43
2019-04-06T06:49:36.694Z,7.70
2019-04-06T06:52:26.428Z,7.60
2019-04-06T06:55:09.273Z,8.10
2019-04-06T06:57:59.149Z,7.73
2019-04-06T07:00:41.577Z,7.70
2019-04-06T07:03:33.146Z,8.00
2019-04-06T07:06:22.967Z,8.67
2019-04-06T07:09:12.798Z,8.37
2019-04-06T07:12:02.637Z,8.17
2019-04-06T07:14:52.414Z,8.07
2019-04-06T07:20:25.056Z,7.27
2019-04-06T07:23:14.799Z,7.80
2019-04-06T07:28:57.519Z,7.70
2019-04-06T07:31:47.279Z,7.53
2019-04-06T07:34:29.467Z,7.67
2019-04-06T07:37:19.186Z,7.57
2019-04-06T07:40:01.415Z,7.40
2019-04-06T07:43:10.269Z,7.43
2019-04-06T07:45:52.407Z,7.47
2019-04-06T07:48:42.198Z,7.87
2019-04-06T07:51:24.932Z,8.03
2019-04-06T07:54:14.769Z,8.77
2019-04-06T07:57:04.501Z,9.23
2019-04-06T07:59:46.808Z,9.57
2019-04-06T08:02:36.634Z,9.60
2019-04-06T08:05:26.601Z,9.43
2019-04-06T08:08:16.633Z,9.07
2019-04-06T08:11:06.515Z,10.13
2019-04-06T08:13:56.693Z,12.73
2019-04-06T08:16:46.756Z,12.10
2019-04-06T08:22:14.766Z,13.37
2019-04-06T08:25:04.827Z,13.50
2019-04-06T08:27:47.925Z,14.13
2019-04-06T08:30:46.086Z,13.77
2019-04-06T08:33:26.027Z,13.07
2019-04-06T08:36:15.817Z,13.87
2019-04-06T08:38:58.625Z,13.03
2019-04-06T08:41:48.399Z,14.27
2019-04-06T08:44:32.293Z,14.57
2019-04-06T08:47:41.161Z,15.70
2019-04-06T08:50:23.792Z,16.07
2019-04-06T08:56:20.958Z,15.87
2019-04-06T08:59:13.190Z,16.97
2019-04-06T09:01:59.162Z,16.27
2019-04-06T09:04:41.570Z,16.17
2019-04-06T09:07:31.363Z,16.20
2019-04-06T09:10:02.433Z,17.60
2019-04-06T09:12:52.174Z,18.43
2019-04-06T09:15:34.616Z,17.50
2019-04-06T09:18:24.424Z,16.83
2019-04-06T09:21:09.406Z,17.67
2019-04-06T09:23:59.364Z,16.20
2019-04-06T09:26:49.258Z,15.90
2019-04-06T09:29:39.528Z,16.33
2019-04-06T09:32:29.839Z,16.30
2019-04-06T09:38:10.856Z,15.23
2019-04-06T09:41:00.781Z,16.50
2019-04-06T09:43:50.618Z,15.80
2019-04-06T09:46:59.243Z,15.73
2019-04-06T09:49:54.904Z,14.77
2019-04-06T09:53:03.553Z,14.53
2019-04-06T09:55:58.951Z,13.00
2019-04-06T09:59:07.665Z,14.47
2019-04-06T10:02:15.170Z,14.00
2019-04-06T10:05:24.456Z,14.40
2019-04-06T10:11:26.966Z,13.70
2019-04-06T10:14:20.768Z,11.67
2019-04-06T10:17:18.778Z,12.23
2019-04-06T10:20:27.769Z,12.40
2019-04-06T10:23:36.953Z,10.93
2019-04-06T10:26:45.912Z,13.37
2019-04-06T10:29:54.494Z,13.90
2019-04-06T10:33:03.187Z,13.20
2019-04-06T10:36:03.868Z,12.97
2019-04-06T10:42:29.562Z,13.97
2019-04-06T10:45:27.097Z,13.20
2019-04-06T10:48:17.069Z,14.67
2019-04-06T10:51:25.660Z,14.60
2019-04-06T10:54:27.547Z,15.87
2019-04-06T11:00:31.045Z,15.63
2019-04-06T11:03:27.211Z,14.63
2019-04-06T11:06:31.971Z,17.00
2019-04-06T11:09:40.637Z,15.93
2019-04-06T11:12:42.274Z,16.83
2019-04-06T11:15:50.823Z,15.87
2019-04-06T11:18:56.572Z,15.50
2019-04-06T11:22:05.209Z,16.20
2019-04-06T11:25:11.104Z,15.27
2019-04-06T11:28:17.105Z,15.20
2019-04-06T11:31:18.266Z,15.67
2019-04-06T11:37:21.732Z,16.27
2019-04-06T11:40:30.505Z,16.90
2019-04-06T11:46:35.272Z,16.00
2019-04-06T11:49:43.994Z,15.90
2019-04-06T11:56:08.259Z,17.10
2019-04-06T11:59:16.928Z,16.50
2019-04-06T12:02:18.280Z,15.37
2019-04-06T12:05:27.196Z,16.53
2019-04-06T12:08:28.908Z,15.83
2019-04-06T12:11:36.429Z,16.43
2019-04-06T12:14:23.291Z,16.03
2019-04-06T12:17:25.803Z,15.73
2019-04-06T12:20:23.967Z,15.53
2019-04-06T12:23:26.579Z,16.50
2019-04-06T12:26:36.184Z,15.30
2019-04-06T12:29:44.708Z,17.07
2019-04-06T12:32:53.513Z,15.87
2019-04-06T12:36:02.083Z,16.73
2019-04-06T12:39:00.646Z,16.90
2019-04-06T12:42:02.945Z,17.33
2019-04-06T12:45:11.618Z,16.37
2019-04-06T12:48:20.511Z,16.43
2019-04-06T12:51:29.103Z,16.57
2019-04-06T12:54:37.787Z,16.23
2019-04-06T12:57:44.643Z,15.80
2019-04-06T13:00:53.952Z,15.10
2019-04-06T13:03:59.550Z,15.53
2019-04-06T13:07:01.833Z,15.80
2019-04-06T13:10:00.339Z,15.40
2019-04-06T13:13:09.026Z,15.83
2019-04-06T13:16:18.000Z,15.63
2019-04-06T13:19:25.382Z,15.50
2019-04-06T13:22:26.639Z,14.80
2019-04-06T13:25:35.205Z,14.63
2019-04-06T13:31:48.610Z,14.07
2019-04-06T13:34:45.379Z,12.33
2019-04-06T13:37:46.634Z,11.77
2019-04-06T13:40:55.324Z,12.37
2019-04-06T13:43:50.826Z,14.30
2019-04-06T13:46:59.644Z,14.13
2019-04-06T13:50:01.419Z,13.60
2019-04-06T13:55:50.820Z,13.60
2019-04-06T13:58:59.349Z,14.10
2019-04-06T14:01:49.564Z,13.20
2019-04-06T14:04:58.551Z,12.87
2019-04-06T14:08:02.852Z,13.53
2019-04-06T14:11:11.409Z,12.27
2019-04-06T14:14:14.264Z,12.60
2019-04-06T14:17:22.820Z,13.40
2019-04-06T14:20:24.703Z,13.80
2019-04-06T14:26:36.261Z,15.20
2019-04-06T14:29:45.282Z,15.30
2019-04-06T14:32:34.811Z,14.40
2019-04-06T14:35:43.458Z,15.27
2019-04-06T14:38:45.795Z,15.93
2019-04-06T14:41:54.320Z,16.37
2019-04-06T14:44:58.733Z,16.73
2019-04-06T14:48:09.379Z,16.40
2019-04-06T14:51:12.285Z,15.37
2019-04-06T14:54:10.601Z,14.67
2019-04-06T14:57:12.357Z,15.33
2019-04-06T15:03:21.284Z,16.13
2019-04-06T15:06:28.240Z,16.23
2019-04-06T15:09:30.962Z,16.57
2019-04-06T15:12:35.021Z,16.97
2019-04-06T15:15:36.602Z,15.60
2019-04-06T15:18:29.574Z,12.57
2019-04-06T15:21:35.551Z,13.30
2019-04-06T15:24:44.210Z,13.10
2019-04-06T15:27:52.895Z,14.13
2019-04-06T15:31:01.471Z,14.40
2019-04-06T15:34:10.065Z,12.90
2019-04-06T15:37:18.735Z,14.30
2019-04-06T15:40:21.743Z,13.97
2019-04-06T15:43:19.296Z,13.07
2019-04-06T15:46:21.533Z,14.33
2019-04-06T15:49:23.430Z,13.70
2019-04-06T15:52:32.061Z,14.57
2019-04-06T15:55:40.727Z,14.90
2019-04-06T16:05:02.074Z,15.37
2019-04-06T16:08:11.614Z,16.00
2019-04-06T16:11:15.748Z,15.57
2019-04-06T16:14:17.793Z,15.17
2019-04-06T16:17:26.799Z,14.77
2019-04-06T16:20:31.939Z,15.00
2019-04-06T16:23:43.889Z,15.00
2019-04-06T16:29:50.367Z,15.33
2019-04-06T16:33:00.186Z,15.37
2019-04-06T16:36:01.859Z,14.50
2019-04-06T16:39:10.474Z,14.03
2019-04-06T16:42:11.474Z,15.33
2019-04-06T16:45:20.172Z,16.30
2019-04-06T16:51:18.088Z,15.50
2019-04-06T16:54:19.878Z,15.20
2019-04-06T16:57:23.887Z,16.40
2019-04-06T17:00:34.055Z,15.77
2019-04-06T17:03:26.475Z,15.90
2019-04-06T17:06:37.284Z,16.90
2019-04-06T17:09:36.794Z,15.83
2019-04-06T17:12:37.008Z,16.10
2019-04-06T17:15:36.554Z,14.33
2019-04-06T17:18:45.272Z,15.43
2019-04-06T17:21:54.097Z,15.77
2019-04-06T17:24:53.398Z,15.57
2019-04-06T17:28:02.072Z,15.73
2019-04-06T17:31:07.112Z,15.73
2019-04-06T17:34:15.726Z,15.77
2019-04-06T17:37:24.606Z,15.77
2019-04-06T17:40:33.464Z,15.87
2019-04-06T17:43:42.086Z,15.10
2019-04-06T17:46:50.709Z,17.23
2019-04-06T17:49:59.418Z,18.67
2019-04-06T17:53:08.105Z,16.73
2019-04-06T17:56:17.322Z,17.83
2019-04-06T17:59:45.086Z,18.73
2019-04-06T18:02:49.939Z,20.20
2019-04-06T18:09:07.845Z,19.53
2019-04-06T18:15:22.551Z,16.70
2019-04-06T18:18:12.918Z,16.47
2019-04-06T18:20:56.444Z,16.03
2019-04-06T18:26:42.554Z,16.00
2019-04-06T18:29:32.524Z,16.53
2019-04-06T18:32:41.093Z,16.63
2019-04-06T18:35:23.506Z,16.80
2019-04-06T18:38:38.673Z,15.67
2019-04-06T18:41:28.437Z,15.73
2019-04-06T18:44:18.129Z,16.63
2019-04-06T18:46:49.114Z,15.93
2019-04-06T18:49:38.898Z,16.57
2019-04-06T18:52:21.682Z,17.03
2019-04-06T18:55:11.872Z,17.17
2019-04-06T19:01:05.616Z,16.47
2019-04-06T19:03:48.843Z,16.30
2019-04-06T19:06:30.996Z,16.17
2019-04-06T19:09:40.006Z,16.40
2019-04-06T19:12:26.715Z,15.93
2019-04-06T19:15:09.567Z,16.73
2019-04-06T19:17:59.865Z,15.40
2019-04-06T19:20:43.350Z,16.03
2019-04-06T19:26:28.866Z,17.67
2019-04-06T19:29:18.672Z,16.73
2019-04-06T19:32:09.036Z,15.87
2019-04-06T19:34:53.284Z,15.33
2019-04-06T19:37:55.446Z,16.43
2019-04-06T19:40:38.248Z,15.97
2019-04-06T19:43:28.457Z,16.13
2019-04-06T19:46:13.986Z,15.43
2019-04-06T19:49:03.897Z,15.67
2019-04-06T19:51:49.253Z,15.07
2019-04-06T19:54:38.977Z,16.10
2019-04-06T19:57:20.962Z,15.50
2019-04-06T20:00:11.397Z,15.90
2019-04-06T20:02:56.259Z,17.53
2019-04-06T20:05:46.709Z,15.50
2019-04-06T20:08:29.840Z,16.03
2019-04-06T20:11:19.542Z,15.73
2019-04-06T20:17:05.238Z,15.87
2019-04-06T20:19:36.365Z,15.60
2019-04-06T20:22:26.154Z,15.73
2019-04-06T20:25:09.192Z,15.37
2019-04-06T20:27:59.062Z,15.03
2019-04-06T20:30:49.272Z,14.63
2019-04-06T20:33:48.976Z,14.37
2019-04-06T20:36:22.745Z,14.63
2019-04-06T20:39:12.554Z,15.50
2019-04-06T20:41:56.672Z,13.90
2019-04-06T20:44:59.474Z,14.57
2019-04-06T20:47:42.087Z,14.27
2019-04-06T20:50:31.861Z,14.60
2019-04-06T20:53:15.775Z,13.80
2019-04-06T20:55:58.489Z,15.00
2019-04-06T20:58:49.178Z,15.07
2019-04-06T21:01:39.061Z,14.70
2019-04-06T21:04:29.188Z,14.80
2019-04-06T21:07:13.450Z,15.20
2019-04-06T21:10:03.317Z,15.23
2019-04-06T21:12:53.131Z,14.60
2019-04-06T21:15:43.545Z,14.40
2019-04-06T21:18:27.473Z,15.23
2019-04-06T21:21:09.971Z,15.47
2019-04-06T21:23:59.792Z,15.50
2019-04-06T21:26:49.705Z,14.83
2019-04-06T21:29:59.794Z,14.50
2019-04-06T21:32:42.424Z,15.70
2019-04-06T21:35:32.213Z,15.43
2019-04-06T21:38:14.920Z,15.40
2019-04-06T21:40:57.316Z,14.37
2019-04-06T21:43:47.667Z,14.63
2019-04-06T21:46:31.460Z,15.10
2019-04-06T21:49:21.693Z,14.47
2019-04-06T21:51:54.198Z,14.60
2019-04-06T21:54:45.504Z,15.00
2019-04-06T21:57:16.302Z,13.57
2019-04-06T22:03:40.572Z,14.83
2019-04-06T22:06:25.035Z,14.60
2019-04-06T22:09:15.047Z,15.83
2019-04-06T22:12:04.924Z,15.60
2019-04-06T22:14:47.389Z,16.20
2019-04-06T22:17:37.343Z,15.10
2019-04-06T22:23:25.232Z,15.07
2019-04-06T22:26:15.153Z,14.67
2019-04-06T22:28:57.076Z,16.13
2019-04-06T22:31:46.878Z,15.50
2019-04-06T22:34:39.479Z,14.73
2019-04-06T22:37:21.052Z,15.13
2019-04-06T22:40:03.775Z,14.73
2019-04-06T22:42:53.681Z,16.13
2019-04-06T22:45:36.621Z,15.60
2019-04-06T22:48:26.605Z,17.00
2019-04-06T22:51:11.192Z,15.80
2019-04-06T22:54:01.255Z,15.23
2019-04-06T22:56:45.330Z,15.27
2019-04-06T22:59:35.182Z,15.33
2019-04-06T23:02:17.608Z,16.30
2019-04-06T23:05:26.813Z,17.37
2019-04-06T23:08:16.815Z,22.43
2019-04-06T23:11:01.393Z,19.77
2019-04-06T23:13:51.574Z,17.63
2019-04-06T23:16:35.009Z,17.27
2019-04-06T23:19:24.800Z,15.70
2019-04-06T23:22:14.725Z,15.97
2019-04-06T23:25:04.583Z,15.47
2019-04-06T23:27:54.704Z,15.87
2019-04-06T23:30:44.515Z,15.67
2019-04-06T23:33:34.565Z,17.10
2019-04-06T23:36:18.441Z,15.97
2019-04-06T23:39:20.382Z,15.63
2019-04-06T23:42:04.929Z,15.50
2019-04-06T23:44:54.687Z,16.03
2019-04-06T23:47:44.549Z,16.33
2019-04-06T23:50:28.208Z,15.43
2019-04-06T23:53:18.127Z,15.20
2019-04-06T23:56:00.863Z,15.73
2019-04-06T23:58:50.721Z,16.03
